Time;durP1;ratioP1;P1;durP2;ratioP2;P2;SDS_P1;SDS_P2;PMS_P1;PMS_P2;Temp;Humidity;BMP_temperature;BMP_pressure;BME280_temperature;BME280_humidity;BME280_pressure;Samples;Min_cycle;Max_cycle;Signal;HPM_P1;HPM_P2
2021/09/05 00:00:24;;;;;;;27.00;11.40;;;;;;;8.78;61.75;99563.34;112031;1200;98359;-80
2021/09/05 00:03:09;;;;;;;25.90;11.00;;;;;;;8.75;61.76;99564.40;112093;1199;97629;-76
2021/09/05 00:05:40;;;;;;;27.70;11.20;;;;;;;8.73;61.82;99562.08;111956;1207;111404;-76
2021/09/05 00:08:08;;;;;;;25.60;10.80;;;;;;;8.71;61.88;99563.91;112016;1206;97601;-78
2021/09/05 00:10:38;;;;;;;28.20;11.40;;;;;;;8.70;61.90;99568.76;112652;1200;107497;-78
2021/09/05 00:13:06;;;;;;;29.10;11.70;;;;;;;8.68;61.85;99570.30;112135;1206;95914;-74
2021/09/05 00:15:34;;;;;;;25.50;10.60;;;;;;;8.67;61.95;99577.27;112053;1200;97666;-76
2021/09/05 00:18:03;;;;;;;25.60;10.30;;;;;;;8.63;62.11;99579.92;112017;1206;111287;-77
2021/09/05 00:20:30;;;;;;;25.70;10.80;;;;;;;8.60;62.13;99577.98;112012;1206;96258;-77
2021/09/05 00:22:58;;;;;;;24.60;10.80;;;;;;;8.56;62.15;99579.27;111986;1206;107091;-77
2021/09/05 00:25:26;;;;;;;27.10;11.80;;;;;;;8.51;62.02;99577.45;112013;1199;97686;-77
2021/09/05 00:27:59;;;;;;;27.90;11.50;;;;;;;8.48;62.28;99577.73;112057;1200;97673;-78
2021/09/05 00:30:30;;;;;;;23.90;10.70;;;;;;;8.46;62.31;99577.32;111997;1206;110755;-77
2021/09/05 00:32:58;;;;;;;24.80;10.70;;;;;;;8.43;62.36;99577.30;112060;1206;97691;-77
2021/09/05 00:35:28;;;;;;;23.40;10.60;;;;;;;8.40;62.42;99578.89;111985;1206;107630;-77
2021/09/05 00:37:57;;;;;;;26.40;11.70;;;;;;;8.38;62.36;99581.30;112019;1207;97691;-77
2021/09/05 00:40:24;;;;;;;23.40;9.90;;;;;;;8.35;62.47;99581.09;111990;1198;97536;-77
2021/09/05 00:42:52;;;;;;;24.40;10.40;;;;;;;8.33;62.45;99585.65;111950;1201;111096;-75
2021/09/05 00:45:20;;;;;;;25.10;10.40;;;;;;;8.30;62.46;99590.21;112038;1206;97576;-77
2021/09/05 00:47:48;;;;;;;26.70;11.50;;;;;;;8.28;62.51;99589.61;111955;1208;107464;-82
2021/09/05 00:50:16;;;;;;;24.70;10.80;;;;;;;8.26;62.71;99589.20;112017;1206;98768;-80
2021/09/05 00:52:46;;;;;;;24.80;11.30;;;;;;;8.24;62.70;99590.71;112028;1199;97679;-78
2021/09/05 00:55:14;;;;;;;26.20;11.90;;;;;;;8.22;62.67;99593.48;112020;1206;111072;-81
2021/09/05 00:57:44;;;;;;;25.70;11.20;;;;;;;8.20;62.63;99597.82;112012;1206;98300;-80
2021/09/05 01:00:19;;;;;;;26.90;11.50;;;;;;;8.18;62.96;99597.73;111948;1206;107224;-79
2021/09/05 01:02:49;;;;;;;22.60;10.00;;;;;;;8.16;62.85;99601.55;111961;1198;97604;-80
2021/09/05 01:05:19;;;;;;;26.30;10.70;;;;;;;8.13;62.97;99602.24;111905;1207;97682;-79
2021/09/05 01:07:47;;;;;;;25.10;11.10;;;;;;;8.12;63.01;99604.61;112016;1206;111140;-79
2021/09/05 01:10:15;;;;;;;23.60;10.80;;;;;;;8.10;62.99;99605.60;111995;1206;95654;-81
2021/09/05 01:12:43;;;;;;;26.40;11.00;;;;;;;8.07;62.79;99608.05;112025;1206;107474;-81
2021/09/05 01:15:11;;;;;;;26.40;10.90;;;;;;;8.05;63.01;99609.73;112014;1206;98032;-81
2021/09/05 01:17:39;;;;;;;24.80;10.10;;;;;;;8.03;63.04;99613.34;112061;1201;94981;-81
2021/09/05 01:20:09;;;;;;;27.70;12.30;;;;;;;8.00;63.15;99610.69;112036;1207;111202;-81
2021/09/05 01:22:40;;;;;;;25.90;11.80;;;;;;;7.99;63.07;99608.31;112052;1206;95135;-80
2021/09/05 01:25:09;;;;;;;27.40;12.80;;;;;;;7.98;63.23;99614.71;111989;1206;108334;-80
2021/09/05 01:27:37;;;;;;;31.30;14.00;;;;;;;7.96;63.18;99616.04;111972;1207;96450;-81
2021/09/05 01:30:08;;;;;;;29.80;15.10;;;;;;;7.95;63.22;99617.91;111982;1207;94976;-81
2021/09/05 01:32:35;;;;;;;31.50;16.10;;;;;;;7.92;63.19;99615.23;111964;1207;110932;-80
2021/09/05 01:35:04;;;;;;;29.20;14.30;;;;;;;7.89;63.12;99618.54;111994;1207;97558;-79
2021/09/05 01:37:35;;;;;;;31.40;14.70;;;;;;;7.85;63.21;99620.67;111965;1207;107633;-81
2021/09/05 01:40:09;;;;;;;29.60;14.20;;;;;;;7.83;63.44;99621.34;111993;1207;95131;-79
2021/09/05 01:42:39;;;;;;;29.90;15.10;;;;;;;7.80;63.36;99625.87;111996;1207;97775;-80
2021/09/05 01:45:10;;;;;;;30.40;14.90;;;;;;;7.78;63.32;99631.82;111965;1203;111180;-79
2021/09/05 01:47:38;;;;;;;29.10;14.30;;;;;;;7.76;63.46;99631.58;111985;1207;95545;-79
2021/09/05 01:50:09;;;;;;;31.40;14.90;;;;;;;7.73;63.36;99631.55;111952;1207;107479;-80
2021/09/05 01:52:36;;;;;;;31.40;14.20;;;;;;;7.70;63.30;99631.01;111962;1200;97662;-82
2021/09/05 01:55:07;;;;;;;31.80;14.40;;;;;;;7.66;63.59;99629.27;111968;1207;95138;-80
2021/09/05 01:57:35;;;;;;;31.80;14.70;;;;;;;7.63;63.39;99627.83;111959;1207;111079;-80
2021/09/05 02:00:06;;;;;;;30.80;13.00;;;;;;;7.60;63.71;99627.96;111995;1207;97610;-79
2021/09/05 02:02:34;;;;;;;29.40;12.30;;;;;;;7.57;63.73;99625.45;111977;1207;106586;-79
2021/09/05 02:05:05;;;;;;;26.90;13.00;;;;;;;7.56;63.63;99624.50;111976;1207;97680;-79
2021/09/05 02:07:36;;;;;;;27.20;11.30;;;;;;;7.53;63.83;99624.83;111974;1202;98114;-79
2021/09/05 02:10:04;;;;;;;24.90;11.50;;;;;;;7.52;63.93;99626.67;111969;1198;111165;-79
2021/09/05 02:12:32;;;;;;;25.60;11.30;;;;;;;7.49;63.96;99626.45;112008;1207;97677;-81
2021/09/05 02:15:00;;;;;;;23.40;10.50;;;;;;;7.47;63.73;99627.77;111988;1206;107556;-80
2021/09/05 02:17:30;;;;;;;22.40;10.70;;;;;;;7.45;63.92;99627.33;111984;1206;97666;-80
2021/09/05 02:19:58;;;;;;;25.00;11.50;;;;;;;7.43;63.90;99626.17;112064;1201;97685;-80
2021/09/05 02:22:26;;;;;;;24.50;10.90;;;;;;;7.42;63.90;99627.13;111980;1200;109708;-80
2021/09/05 02:24:57;;;;;;;23.40;11.40;;;;;;;7.40;64.02;99628.44;111969;1207;97623;-80
2021/09/05 02:27:28;;;;;;;25.30;11.20;;;;;;;7.41;64.07;99631.58;112001;1206;107591;-79
2021/09/05 02:29:55;;;;;;;25.20;10.70;;;;;;;7.40;64.24;99633.91;111985;1199;97589;-80
2021/09/05 02:32:23;;;;;;;27.40;12.40;;;;;;;7.39;64.04;99634.33;111978;1203;97620;-81
2021/09/05 02:34:51;;;;;;;25.50;12.00;;;;;;;7.38;64.28;99637.90;112002;1203;111110;-81
2021/09/05 02:37:19;;;;;;;27.10;12.10;;;;;;;7.37;64.29;99638.84;111972;1207;97666;-79
2021/09/05 02:39:47;;;;;;;23.40;10.50;;;;;;;7.35;64.33;99635.07;111977;1206;107262;-80
2021/09/05 02:42:15;;;;;;;23.20;10.80;;;;;;;7.31;64.18;99643.53;111981;1206;97656;-80
2021/09/05 02:44:43;;;;;;;26.50;11.80;;;;;;;7.30;64.29;99640.80;112002;1200;97576;-80
2021/09/05 02:47:11;;;;;;;30.30;12.90;;;;;;;7.27;64.41;99643.56;112008;1206;111860;-79
2021/09/05 02:49:41;;;;;;;24.90;11.10;;;;;;;7.26;64.45;99644.85;112028;1206;97736;-81
2021/09/05 02:52:10;;;;;;;27.10;11.30;;;;;;;7.23;64.28;99644.98;112007;1207;106618;-79
2021/09/05 02:54:42;;;;;;;26.50;12.10;;;;;;;7.20;64.33;99646.54;111999;1199;97735;-80
2021/09/05 02:57:10;;;;;;;24.00;11.00;;;;;;;7.18;64.40;99646.13;112003;1198;95147;-83
2021/09/05 02:59:37;;;;;;;26.80;12.10;;;;;;;7.17;64.46;99647.94;111978;1203;109913;-82
2021/09/05 03:02:08;;;;;;;26.50;11.70;;;;;;;7.15;64.40;99648.39;112007;1206;97581;-76
2021/09/05 03:04:38;;;;;;;30.10;12.00;;;;;;;7.12;64.41;99650.82;111985;1208;107255;-80
2021/09/05 03:07:08;;;;;;;25.10;11.00;;;;;;;7.09;64.37;99652.23;111957;1198;97681;-80
2021/09/05 03:09:40;;;;;;;26.60;12.40;;;;;;;7.07;64.42;99653.36;111967;1198;97682;-82
2021/09/05 03:12:08;;;;;;;26.90;11.30;;;;;;;7.05;64.65;99652.44;112020;1206;111111;-79
2021/09/05 03:14:35;;;;;;;26.30;12.00;;;;;;;7.01;64.59;99653.84;112039;1207;95660;-80
2021/09/05 03:17:03;;;;;;;27.40;12.10;;;;;;;7.01;64.78;99649.62;112002;1199;107469;-80
2021/09/05 03:19:31;;;;;;;26.00;12.90;;;;;;;6.99;64.48;99649.52;111968;1206;97715;-81
2021/09/05 03:21:59;;;;;;;27.20;13.50;;;;;;;6.97;64.83;99654.58;111969;1203;97701;-81
2021/09/05 03:24:27;;;;;;;35.10;14.60;;;;;;;6.94;64.70;99655.05;112010;1203;109937;-80
2021/09/05 03:26:54;;;;;;;33.60;14.60;;;;;;;6.91;64.72;99659.09;111959;1207;97602;-80
2021/09/05 03:29:22;;;;;;;29.80;14.50;;;;;;;6.88;64.68;99656.23;111968;1206;107571;-81
2021/09/05 03:31:50;;;;;;;31.40;17.00;;;;;;;6.81;64.73;99660.23;112011;1208;98474;-82
2021/09/05 03:34:18;;;;;;;28.30;15.70;;;;;;;6.78;64.75;99658.42;112019;1206;95052;-79
2021/09/05 03:36:46;;;;;;;31.70;16.20;;;;;;;6.76;64.80;99660.31;111971;1208;112764;-79
2021/09/05 03:39:16;;;;;;;31.00;18.10;;;;;;;6.72;64.95;99661.21;112026;1206;97631;-79
2021/09/05 03:41:47;;;;;;;30.20;15.80;;;;;;;6.70;65.03;99659.38;112004;1207;108507;-80
2021/09/05 03:44:14;;;;;;;28.10;13.40;;;;;;;6.70;65.17;99659.36;112013;1199;98404;-80
2021/09/05 03:46:42;;;;;;;24.80;10.50;;;;;;;6.71;65.28;99661.07;111993;1206;97544;-80
2021/09/05 03:49:10;;;;;;;21.50;9.60;;;;;;;6.69;64.98;99661.85;112008;1207;111168;-80
2021/09/05 03:51:38;;;;;;;24.00;11.10;;;;;;;6.68;65.19;99661.38;111997;1207;97587;-81
2021/09/05 03:54:06;;;;;;;23.50;11.10;;;;;;;6.68;65.06;99663.84;111992;1206;107470;-80
2021/09/05 03:56:34;;;;;;;26.60;11.00;;;;;;;6.69;65.41;99664.52;111989;1198;97683;-80
2021/09/05 03:59:03;;;;;;;23.80;11.60;;;;;;;6.68;65.15;99666.11;112057;1203;97600;-80
2021/09/05 04:01:33;;;;;;;23.40;11.40;;;;;;;6.63;65.20;99664.61;111985;1206;111114;-80
2021/09/05 04:04:04;;;;;;;23.60;9.80;;;;;;;6.60;65.40;99665.44;112023;1207;94999;-81
2021/09/05 04:06:32;;;;;;;22.30;9.10;;;;;;;6.59;65.28;99671.15;111987;1207;107438;-81
2021/09/05 04:09:10;;;;;;;23.70;9.60;;;;;;;6.55;65.29;99674.35;112032;1203;97755;-80
2021/09/05 04:11:40;;;;;;;23.40;9.30;;;;;;;6.54;65.59;99677.34;112007;1198;97648;-79
2021/09/05 04:14:08;;;;;;;26.60;10.30;;;;;;;6.55;65.44;99686.48;111988;1203;111174;-81
2021/09/05 04:16:36;;;;;;;22.70;9.30;;;;;;;6.54;65.40;99682.47;112009;1206;97694;-84
2021/09/05 04:19:04;;;;;;;24.50;10.50;;;;;;;6.53;65.39;99690.98;111977;1206;107487;-82
2021/09/05 04:21:31;;;;;;;23.10;9.70;;;;;;;6.51;65.41;99692.14;112040;1203;97846;-82
2021/09/05 04:24:02;;;;;;;25.00;11.00;;;;;;;6.50;65.76;99694.28;111956;1207;97811;-82
2021/09/05 04:26:30;;;;;;;24.70;10.90;;;;;;;6.49;65.42;99698.56;111996;1203;111169;-82
2021/09/05 04:29:00;;;;;;;22.00;9.70;;;;;;;6.48;65.60;99698.39;112024;1207;95737;-81
2021/09/05 04:31:28;;;;;;;23.80;9.70;;;;;;;6.48;65.71;99694.54;112005;1208;107447;-81
2021/09/05 04:33:55;;;;;;;24.90;10.70;;;;;;;6.48;65.63;99697.55;112024;1208;97660;-81
2021/09/05 04:36:23;;;;;;;25.80;10.20;;;;;;;6.49;65.67;99697.34;112010;1202;97596;-81
2021/09/05 04:38:51;;;;;;;21.90;9.70;;;;;;;6.49;65.76;99701.91;111965;1208;111169;-80
2021/09/05 04:41:19;;;;;;;20.80;9.90;;;;;;;6.48;65.65;99703.39;112006;1207;97684;-78
2021/09/05 04:43:47;;;;;;;27.80;10.60;;;;;;;6.46;65.85;99705.05;111982;1207;107488;-80
2021/09/05 04:46:15;;;;;;;24.00;10.60;;;;;;;6.46;65.78;99709.45;111985;1201;97582;-80
2021/09/05 04:48:43;;;;;;;24.50;10.20;;;;;;;6.49;66.04;99711.79;111965;1206;96534;-80
2021/09/05 04:51:10;;;;;;;24.10;10.50;;;;;;;6.52;65.92;99712.20;112015;1203;110935;-80
2021/09/05 04:53:38;;;;;;;21.90;10.10;;;;;;;6.54;65.96;99716.98;112038;1208;98034;-81
2021/09/05 04:56:09;;;;;;;24.60;10.70;;;;;;;6.58;65.92;99717.89;111995;1208;107433;-79
2021/09/05 04:58:36;;;;;;;24.80;10.60;;;;;;;6.60;65.98;99719.02;112016;1208;96243;-81
2021/09/05 05:01:04;;;;;;;23.60;11.30;;;;;;;6.62;66.10;99722.66;112016;1207;95056;-79
2021/09/05 05:03:35;;;;;;;27.40;11.20;;;;;;;6.65;66.17;99723.05;112000;1208;111094;-80
2021/09/05 05:06:18;;;;;;;22.90;10.70;;;;;;;6.67;66.13;99725.23;112032;1211;98112;-80
2021/09/05 05:08:47;;;;;;;23.10;12.10;;;;;;;6.70;66.09;99727.38;111941;1201;107175;-80
2021/09/05 05:11:17;;;;;;;26.10;12.30;;;;;;;6.74;66.12;99728.80;111983;1207;97692;-80
2021/09/05 05:13:47;;;;;;;24.90;11.80;;;;;;;6.77;66.35;99730.39;111995;1203;97706;-80
2021/09/05 05:16:15;;;;;;;25.80;13.30;;;;;;;6.81;66.48;99731.45;111995;1207;110765;-79
2021/09/05 05:18:42;;;;;;;24.80;12.00;;;;;;;6.86;66.45;99737.59;112028;1207;95720;-81
2021/09/05 05:21:13;;;;;;;26.00;12.60;;;;;;;6.90;66.54;99739.19;111962;1207;107475;-80
2021/09/05 05:23:41;;;;;;;24.90;12.10;;;;;;;6.94;66.61;99744.60;111947;1209;97575;-81
2021/09/05 05:26:09;;;;;;;27.50;12.70;;;;;;;6.99;66.58;99745.06;111997;1200;97680;-86
2021/09/05 05:28:36;;;;;;;25.00;12.50;;;;;;;7.04;66.68;99742.91;112036;1207;111905;-80
2021/09/05 05:31:07;;;;;;;24.70;11.50;;;;;;;7.09;66.85;99743.94;112027;1208;97635;-81
2021/09/05 05:33:35;;;;;;;23.90;10.90;;;;;;;7.14;66.99;99746.30;112018;1208;106091;-79
2021/09/05 05:36:03;;;;;;;24.80;11.70;;;;;;;7.21;66.85;99746.55;112019;1208;95941;-79
2021/09/05 05:38:31;;;;;;;24.80;11.70;;;;;;;7.28;66.95;99747.45;112038;1198;98308;-78
2021/09/05 05:40:59;;;;;;;23.50;10.50;;;;;;;7.36;67.20;99752.36;112022;1203;111158;-78
2021/09/05 05:43:27;;;;;;;25.40;11.30;;;;;;;7.43;66.93;99752.71;112050;1207;97578;-79
2021/09/05 05:45:54;;;;;;;23.90;11.50;;;;;;;7.52;67.03;99755.64;111911;1206;107441;-79
2021/09/05 05:48:25;;;;;;;23.80;10.90;;;;;;;7.60;67.15;99757.55;111954;1200;97721;-80
2021/09/05 05:50:53;;;;;;;24.70;11.10;;;;;;;7.67;67.20;99757.70;111938;1202;97639;-80
2021/09/05 05:53:21;;;;;;;23.70;10.50;;;;;;;7.75;67.22;99759.96;111990;1208;111279;-82
2021/09/05 05:55:50;;;;;;;24.00;10.70;;;;;;;7.82;67.32;99764.20;112016;1208;97601;-85
2021/09/05 05:58:18;;;;;;;23.80;11.70;;;;;;;7.90;67.20;99764.90;111995;1208;107178;-80
2021/09/05 06:01:06;;;;;;;25.30;11.70;;;;;;;7.97;67.40;99764.14;111959;1203;97679;-79
2021/09/05 06:03:39;;;;;;;25.10;11.70;;;;;;;8.05;67.37;99762.71;112161;1198;97576;-83
2021/09/05 06:06:07;;;;;;;27.50;11.40;;;;;;;8.12;67.44;99764.66;112055;1207;111159;-82
2021/09/05 06:08:37;;;;;;;27.30;11.60;;;;;;;8.20;67.41;99767.63;112076;1208;95664;-77
2021/09/05 06:11:07;;;;;;;26.30;12.30;;;;;;;8.28;67.49;99768.45;112012;1198;107612;-80
2021/09/05 06:13:36;;;;;;;25.90;12.50;;;;;;;8.35;67.59;99768.23;112060;1198;97680;-82
2021/09/05 06:16:04;;;;;;;27.70;12.50;;;;;;;8.44;67.46;99771.46;112056;1200;97692;-77
2021/09/05 06:18:35;;;;;;;29.60;13.30;;;;;;;8.53;67.56;99775.50;112026;1207;111202;-77
2021/09/05 06:21:03;;;;;;;25.90;13.20;;;;;;;8.61;67.66;99777.00;111961;1209;95619;-78
2021/09/05 06:23:31;;;;;;;29.50;13.70;;;;;;;8.69;67.56;99777.10;112043;1199;107492;-79
2021/09/05 06:25:59;;;;;;;26.90;13.30;;;;;;;8.76;67.48;99774.63;112016;1200;95090;-79
2021/09/05 06:28:26;;;;;;;27.10;12.00;;;;;;;8.84;67.67;99772.95;112023;1208;97580;-82
2021/09/05 06:30:54;;;;;;;23.30;11.50;;;;;;;8.92;67.65;99776.21;111989;1207;111135;-83
2021/09/05 06:33:24;;;;;;;31.70;13.80;;;;;;;9.00;67.77;99777.38;111999;1207;95170;-77
2021/09/05 06:35:54;;;;;;;20.90;9.00;;;;;;;9.08;67.57;99776.93;112020;1208;108111;-84
2021/09/05 06:38:21;;;;;;;21.20;9.70;;;;;;;9.18;67.73;99783.84;112126;1200;95790;-85
2021/09/05 06:40:49;;;;;;;21.90;9.30;;;;;;;9.27;67.76;99785.66;112063;1199;97559;-81
2021/09/05 06:43:20;;;;;;;19.20;8.40;;;;;;;9.36;67.78;99788.84;112086;1207;111224;-83
2021/09/05 06:45:48;;;;;;;19.30;8.10;;;;;;;9.47;67.81;99786.48;112085;1206;97640;-76
2021/09/05 06:48:36;;;;;;;21.90;7.60;;;;;;;9.59;67.88;99789.51;111939;1199;108250;-83
2021/09/05 06:51:10;;;;;;;20.20;7.80;;;;;;;9.69;67.73;99794.27;111935;1208;97691;-83
2021/09/05 06:53:42;;;;;;;23.80;7.60;;;;;;;9.77;67.53;99794.69;112005;1208;95054;-81
2021/09/05 06:56:10;;;;;;;18.10;6.40;;;;;;;9.86;67.66;99798.95;111969;1207;111056;-82
2021/09/05 06:58:41;;;;;;;14.40;5.70;;;;;;;9.95;67.70;99802.15;112016;1207;97654;-84
2021/09/05 07:01:09;;;;;;;16.40;6.00;;;;;;;10.06;67.65;99807.58;112064;1206;106264;-85
2021/09/05 07:03:39;;;;;;;17.70;6.40;;;;;;;10.14;67.70;99808.67;111872;1208;96112;-80
2021/09/05 07:06:13;;;;;;;15.90;6.00;;;;;;;10.23;67.60;99810.80;112059;1207;97136;-82
2021/09/05 07:08:44;;;;;;;14.60;5.20;;;;;;;10.32;67.58;99810.46;111993;1206;111151;-83
2021/09/05 07:11:12;;;;;;;10.90;4.20;;;;;;;10.42;67.62;99808.14;111995;1206;96007;-82
2021/09/05 07:13:39;;;;;;;14.90;4.90;;;;;;;10.53;67.47;99813.14;111978;1206;107273;-84
2021/09/05 07:16:10;;;;;;;12.40;5.10;;;;;;;10.62;67.58;99817.20;112014;1207;97682;-84
2021/09/05 07:18:43;;;;;;;13.70;4.30;;;;;;;10.71;67.49;99824.27;112032;1199;97684;-80
2021/09/05 07:21:11;;;;;;;12.00;4.50;;;;;;;10.81;67.52;99826.69;112000;1208;111128;-81
2021/09/05 07:23:39;;;;;;;14.80;4.90;;;;;;;10.95;67.53;99829.91;111981;1208;97679;-83
2021/09/05 07:26:07;;;;;;;12.70;4.40;;;;;;;11.25;67.28;99832.33;112104;1207;107413;-81
2021/09/05 07:28:36;;;;;;;12.80;4.30;;;;;;;12.92;65.05;99825.69;112032;1203;97595;-85
2021/09/05 07:31:04;;;;;;;13.30;4.60;;;;;;;14.99;63.50;99825.59;112013;1202;97530;-79
2021/09/05 07:33:33;;;;;;;10.90;4.90;;;;;;;16.86;63.26;99825.15;112042;1206;110251;-76
2021/09/05 07:36:04;;;;;;;13.20;5.00;;;;;;;18.45;63.01;99827.44;112050;1198;97597;-82
2021/09/05 07:38:35;;;;;;;8.40;3.80;;;;;;;19.76;62.58;99824.45;112053;1206;107437;-81
2021/09/05 07:41:03;;;;;;;7.40;3.70;;;;;;;20.90;62.51;99823.30;112030;1202;98272;-85
2021/09/05 07:43:30;;;;;;;7.60;4.10;;;;;;;21.86;61.87;99823.65;112104;1203;95615;-85
2021/09/05 07:46:02;;;;;;;9.90;4.10;;;;;;;22.80;61.63;99828.81;112021;1207;111153;-86
2021/09/05 07:48:30;;;;;;;14.40;4.50;;;;;;;23.59;61.13;99831.56;112188;1207;97531;-81
2021/09/05 07:50:58;;;;;;;10.10;3.60;;;;;;;24.44;61.10;99836.55;112032;1206;107418;-79
2021/09/05 07:53:27;;;;;;;8.90;3.30;;;;;;;25.25;61.21;99832.89;112052;1199;97610;-79
2021/09/05 07:55:55;;;;;;;6.10;3.30;;;;;;;26.03;60.64;99835.90;112019;1203;97543;-80
2021/09/05 07:58:27;;;;;;;6.20;3.10;;;;;;;26.73;60.28;99839.67;111979;1207;110982;-83
2021/09/05 08:00:59;;;;;;;;;;;;;;;27.48;60.12;99841.95;111994;1208;97691;-84
2021/09/05 08:03:27;;;;;;;9.10;3.70;;;;;;;28.17;59.69;99842.45;111996;1198;107471;-83
2021/09/05 08:05:56;;;;;;;8.60;3.40;;;;;;;28.77;59.56;99847.65;111960;1199;97664;-85
2021/09/05 08:08:23;;;;;;;6.30;3.40;;;;;;;29.25;59.42;99851.66;111913;1200;96416;-79
2021/09/05 08:10:52;;;;;;;9.10;3.10;;;;;;;29.67;58.91;99852.61;111985;1203;111320;-86
2021/09/05 08:13:20;;;;;;;6.30;3.50;;;;;;;30.09;58.95;99854.92;112215;1198;97619;-84
2021/09/05 08:15:47;;;;;;;6.10;3.40;;;;;;;30.53;58.42;99853.52;112168;1199;97546;-85
2021/09/05 08:18:15;;;;;;;6.50;3.60;;;;;;;30.95;58.11;99857.73;112159;1207;97609;-81
2021/09/05 08:20:43;;;;;;;8.60;3.00;;;;;;;31.06;57.52;99858.25;112201;1198;97610;-78
2021/09/05 08:23:15;;;;;;;6.50;3.20;;;;;;;30.99;56.99;99860.36;112056;1206;102461;-83
2021/09/05 08:25:43;;;;;;;6.70;3.20;;;;;;;31.20;57.02;99862.30;112174;1206;95697;-82
2021/09/05 08:28:12;;;;;;;5.00;2.80;;;;;;;31.16;56.46;99865.05;112144;1207;97681;-84
2021/09/05 08:30:43;;;;;;;8.20;2.70;;;;;;;31.24;56.23;99867.59;112191;1206;95146;-83
2021/09/05 08:33:17;;;;;;;14.40;3.60;;;;;;;31.46;56.09;99871.05;112201;1199;97527;-84
2021/09/05 08:35:50;;;;;;;10.50;3.50;;;;;;;31.78;55.80;99869.83;112110;1203;102428;-84
2021/09/05 08:38:22;;;;;;;5.50;2.80;;;;;;;31.99;55.44;99871.84;112137;1207;97692;-83
2021/09/05 08:40:54;;;;;;;6.50;2.80;;;;;;;31.91;54.74;99867.34;112133;1206;98854;-79
2021/09/05 08:43:22;;;;;;;9.20;2.90;;;;;;;31.77;54.27;99872.30;112162;1206;97618;-75
2021/09/05 08:45:52;;;;;;;6.30;2.70;;;;;;;31.92;53.98;99873.35;112061;1199;97589;-71
2021/09/05 08:48:24;;;;;;;3.90;2.40;;;;;;;32.28;53.79;99875.15;112066;1207;103428;-71
2021/09/05 08:50:57;;;;;;;7.30;2.50;;;;;;;32.57;53.25;99872.95;112051;1207;95565;-77
2021/09/05 08:53:25;;;;;;;5.60;2.70;;;;;;;32.87;52.88;99875.17;112011;1207;98823;-73
2021/09/05 08:55:53;;;;;;;7.40;3.00;;;;;;;33.01;52.34;99874.23;112010;1206;96458;-74
2021/09/05 08:58:23;;;;;;;2.90;2.20;;;;;;;32.98;51.94;99873.63;112061;1199;95904;-74
2021/09/05 09:00:50;;;;;;;5.20;2.30;;;;;;;33.13;51.73;99875.88;112020;1198;102318;-71
2021/09/05 09:03:25;;;;;;;4.90;2.10;;;;;;;33.30;51.26;99873.59;111977;1207;98301;-70
2021/09/05 09:05:57;;;;;;;4.70;2.10;;;;;;;33.31;50.59;99870.31;111939;1206;98912;-72
2021/09/05 09:08:26;;;;;;;4.30;2.30;;;;;;;33.26;50.01;99874.27;111962;1198;97685;-69
2021/09/05 09:11:02;;;;;;;4.90;2.20;;;;;;;33.28;49.74;99876.09;111994;1207;97721;-70
2021/09/05 09:13:41;;;;;;;3.10;2.10;;;;;;;33.37;49.26;99872.13;111983;1207;102507;-73
2021/09/05 09:16:15;;;;;;;4.10;2.00;;;;;;;33.57;49.04;99870.48;112018;1206;95468;-72
2021/09/05 09:18:47;;;;;;;5.70;1.90;;;;;;;33.79;48.77;99873.84;112014;1207;98806;-70
2021/09/05 09:21:20;;;;;;;5.90;1.90;;;;;;;33.92;48.04;99870.73;112010;1206;96750;-70
2021/09/05 09:23:53;;;;;;;3.70;2.00;;;;;;;34.02;47.67;99865.40;112020;1201;97589;-70
2021/09/05 09:26:20;;;;;;;2.90;1.90;;;;;;;34.12;47.37;99868.30;112002;1198;102484;-70
2021/09/05 09:28:53;;;;;;;9.30;2.70;;;;;;;34.05;47.00;99867.52;111997;1206;98068;-70
2021/09/05 09:31:29;;;;;;;9.20;2.60;;;;;;;34.11;46.48;99873.52;111996;1206;97677;-70
2021/09/05 09:34:02;;;;;;;7.30;2.40;;;;;;;34.27;45.83;99864.91;111984;1199;97645;-71
2021/09/05 09:36:34;;;;;;;4.80;2.20;;;;;;;34.29;45.82;99874.45;112042;1200;95473;-71
2021/09/05 09:39:07;;;;;;;3.20;1.90;;;;;;;34.37;45.31;99875.67;111980;1206;102410;-69
2021/09/05 09:41:41;;;;;;;4.00;2.10;;;;;;;34.40;44.63;99874.25;111963;1207;96670;-70
2021/09/05 09:44:14;;;;;;;5.10;2.20;;;;;;;33.80;44.46;99877.59;111964;1207;98848;-70
2021/09/05 09:46:46;;;;;;;6.10;2.30;;;;;;;33.49;44.07;99878.08;112040;1206;97608;-71
2021/09/05 09:49:14;;;;;;;4.00;2.00;;;;;;;33.21;44.01;99879.46;112048;1199;97642;-70
2021/09/05 09:51:42;;;;;;;8.20;2.40;;;;;;;32.72;44.11;99872.33;112040;1201;111285;-70
2021/09/05 09:54:10;;;;;;;3.60;2.10;;;;;;;32.08;43.59;99873.92;112048;1200;97697;-70
2021/09/05 09:56:38;;;;;;;3.60;1.80;;;;;;;31.01;42.70;99869.98;112033;1206;98669;-71
2021/09/05 09:59:07;;;;;;;5.40;2.10;;;;;;;30.21;42.72;99872.52;112049;1198;98283;-71
2021/09/05 10:01:51;;;;;;;3.20;2.00;;;;;;;29.59;42.28;99872.07;111992;1199;97692;-79
2021/09/05 10:04:22;;;;;;;2.20;1.90;;;;;;;28.87;42.30;99870.55;111861;1198;111267;-75
2021/09/05 10:06:50;;;;;;;3.90;1.90;;;;;;;27.90;41.54;99877.24;111968;1206;95755;-82
2021/09/05 10:09:19;;;;;;;2.30;1.70;;;;;;;27.10;41.48;99880.55;112052;1201;107469;-82
2021/09/05 10:11:54;;;;;;;7.50;2.10;;;;;;;26.44;41.24;99878.77;112009;1206;97722;-77
2021/09/05 10:14:23;;;;;;;4.10;1.90;;;;;;;25.99;41.10;99877.48;111999;1203;97589;-77
2021/09/05 10:16:52;;;;;;;4.40;1.90;;;;;;;25.54;40.74;99876.63;111997;1206;110860;-85
2021/09/05 10:19:24;;;;;;;3.90;2.10;;;;;;;25.04;40.60;99877.02;112000;1198;95389;-69
2021/09/05 10:21:52;;;;;;;2.60;1.60;;;;;;;24.58;40.47;99882.34;111920;1206;107521;-69
2021/09/05 10:24:20;;;;;;;6.00;1.80;;;;;;;24.16;40.38;99881.69;111938;1206;97672;-68
2021/09/05 10:27:06;;;;;;;3.20;1.20;;;;;;;23.66;40.17;99888.70;111956;1206;97701;-68
2021/09/05 10:29:38;;;;;;;4.00;1.90;;;;;;;23.12;39.84;99888.50;111955;1206;111765;-68
2021/09/05 10:32:20;;;;;;;6.10;1.40;;;;;;;22.90;40.03;99884.34;112008;1206;97586;-68
2021/09/05 10:34:48;;;;;;;5.00;1.90;;;;;;;22.72;39.77;99885.24;111941;1206;108037;-67
2021/09/05 10:37:16;;;;;;;3.10;1.50;;;;;;;22.47;39.48;99885.55;111962;1206;96061;-69
2021/09/05 10:40:10;;;;;;;3.20;1.30;;;;;;;22.30;39.35;99881.69;111992;1206;96026;-68
2021/09/05 10:43:01;;;;;;;4.50;1.80;;;;;;;22.21;39.50;99878.06;111952;1206;110864;-68
2021/09/05 10:45:33;;;;;;;3.70;1.80;;;;;;;22.15;39.14;99879.62;111937;1206;97707;-69
2021/09/05 10:48:01;;;;;;;2.90;1.30;;;;;;;21.98;39.25;99875.92;111954;1206;107499;-67
2021/09/05 10:50:38;;;;;;;6.00;2.30;;;;;;;21.76;39.43;99879.27;111933;1206;97582;-67
2021/09/05 10:53:16;;;;;;;6.00;2.30;;;;;;;21.55;39.22;99881.80;111960;1206;96106;-67
2021/09/05 10:56:06;;;;;;;3.80;1.90;;;;;;;21.33;39.14;99882.72;111949;1206;110896;-67
2021/09/05 10:58:51;;;;;;;3.90;1.60;;;;;;;21.13;39.07;99884.61;111997;1206;97612;-68
2021/09/05 11:01:22;;;;;;;4.90;1.80;;;;;;;20.97;39.03;99883.52;111967;1206;107993;-68
2021/09/05 11:04:12;;;;;;;2.10;1.50;;;;;;;20.86;39.01;99884.11;111982;1206;95037;-68
2021/09/05 11:07:03;;;;;;;5.80;2.00;;;;;;;20.71;39.01;99878.98;112022;1206;97596;-69
2021/09/05 11:09:30;;;;;;;4.00;1.90;;;;;;;20.61;39.15;99881.63;111954;1206;111013;-68
2021/09/05 11:12:40;;;;;;;5.50;2.10;;;;;;;20.53;39.01;99875.71;111988;1201;95186;-69
2021/09/05 11:15:15;;;;;;;5.60;2.40;;;;;;;20.49;39.08;99874.55;111961;1206;107470;-68
2021/09/05 11:17:53;;;;;;;4.50;2.20;;;;;;;20.53;39.19;99872.63;111842;1201;97705;-68
2021/09/05 11:20:22;;;;;;;3.90;2.00;;;;;;;20.62;39.12;99872.35;111936;1206;97678;-68
2021/09/05 11:22:50;;;;;;;9.40;3.20;;;;;;;20.60;38.87;99862.94;111915;1206;111706;-71
2021/09/05 11:25:23;;;;;;;4.20;2.30;;;;;;;20.44;39.16;99881.55;111956;1200;97677;-71
2021/09/05 11:27:57;;;;;;;4.40;2.30;;;;;;;20.36;39.05;99883.36;111922;1206;107421;-69
2021/09/05 11:30:33;;;;;;;5.30;1.80;;;;;;;20.28;38.94;99884.71;111949;1199;96216;-72